Latest Coastal Weather Observations for Cocos Island

IDW60701

Issued at 1:03 am WST Sunday 28 August 2016 (issued every 10 minutes, with the page automatically refreshed every 10 minutes)

About coastal observations | Map of coastal stations | Coastal observations for WA | Marine services | Other Formats
Station Details ID: 200284 Name: COCOS ISLAND AIRPORT Lat: -12.19 Lon: 96.83 Height: 3.0 m
Data from the previous 72 hours. | See also: Recent months at Cocos Island
Date/Time
WST
Temp
°C
Wind Pressure Rain since
9am
mm
Weather Cloud Vis
km
Sea
Height
m
Swell
Dir  Spd
kts
Gust
kts
hPa Trend Height
m
Period
s
Dir
28/01:00am 25.1 S 16 20 1010.0 - 0.2 - Partly cloudy 8 - - - -
28/12:30am 25.2 S 18 22 1010.1 - 0.2 - Partly cloudy 7 - - - -
28/12:00am 25.4 S 17 22 1010.0 - 0.2 - Partly cloudy 10 - - - -
 
Date/Time
WST
Temp
°C
Wind Pressure Rain since
9am
mm
Weather Cloud Vis
km
Sea
Height
m
Swell
Dir  Spd
kts
Gust
kts
hPa Trend Height
m
Period
s
Dir
27/11:30pm 25.4 S 17 22 1010.5 - 0.2 - Partly cloudy 10 - - - -
27/11:00pm 25.3 S 19 24 1010.4 - 0.2 - Cloudy 10 - - - -
27/10:32pm 25.2 S 17 21 1009.8 - 0.2 - Partly cloudy 10 - - - -
27/10:30pm 25.3 S 18 22 1009.8 - 0.2 - Partly cloudy 10 - - - -
27/10:18pm 25.3 S 17 21 1009.6 - 0.2 - Partly cloudy 6 - - - -
27/10:10pm 25.4 S 18 23 1009.6 - 0.2 - Partly cloudy 10 - - - -
27/10:00pm 25.3 S 17 21 1009.6 - 0.2 - Partly cloudy 6 - - - -
27/09:51pm 25.1 S 17 23 1009.6 - 0.2 - Cloudy 6 - - - -
27/09:30pm 25.5 S 17 22 1009.7 - 0.2 - Partly cloudy 10 - - - -
27/09:00pm 25.2 S 18 24 1009.2 - 0.2 - Partly cloudy 8 - - - -
27/08:52pm 25.4 S 17 22 1008.8 - 0.2 - Partly cloudy 9 - - - -
27/08:31pm 25.3 S 17 25 1008.6 - 0.2 - Partly cloudy 9 - - - -
27/08:30pm 25.3 S 17 25 1008.6 - 0.2 - Partly cloudy 8 - - - -
27/08:28pm 25.3 S 17 25 1008.6 - 0.2 - Partly cloudy 9 - - - -
27/08:14pm 24.9 S 19 25 1008.7 - 0.2 - Partly cloudy 6 - - - -
27/08:00pm 25.3 S 20 27 1008.4 - 0.2 - Cloudy 10 - - - -
27/07:30pm 25.4 S 20 24 1007.9 - 0.2 - Partly cloudy 10 - - - -
27/07:00pm 25.4 S 18 24 1008.1 - 0.2 - Partly cloudy 9 - - - -
27/06:30pm 25.3 S 19 26 1007.4 - 0.2 - Partly cloudy 9 - - - -
27/06:00pm 24.9 S 21 27 1007.5 - 0.2 - Partly cloudy 7 - - - -
27/05:30pm 25.4 S 19 25 1007.4 - 0.2 - Partly cloudy 7 - - - -
27/05:26pm 25.4 S 19 25 1007.4 - 0.2 - Partly cloudy 2 - - - -
27/05:08pm 25.9 S 20 25 1007.3 - 0.2 - Partly cloudy 3 - - - -
27/05:00pm 26.0 S 19 24 1007.3 - 0.2 - Mostly cloudy 10 - - - -
27/04:30pm 26.1 S 19 26 1007.4 - 0.2 - Partly cloudy 10 - - - -
27/04:00pm 26.4 S 20 25 1007.4 - 0.2 - Cloudy 10 - - - -
27/03:30pm 26.4 S 20 25 1007.4 - 0.2 - Partly cloudy 10 - - - -
27/03:00pm 27.0 S 21 26 1007.7 - 0.2 - Partly cloudy - - - - -
27/02:30pm 26.4 S 21 25 1007.9 - 0.2 - Partly cloudy - - - - -
27/02:00pm 26.3 S 21 26 1008.1 - 0.2 - Cloudy - - - - -
27/01:30pm 26.2 S 19 24 1008.8 - 0.2 - Partly cloudy 10 - - - -
27/01:00pm 26.1 S 19 24 1009.0 - 0.2 - Partly cloudy 10 - - - -
27/12:30pm 26.1 S 19 24 1009.3 - 0.2 - Partly cloudy 10 - - - -
27/12:14pm 26.4 S 19 24 1009.4 - 0.0 - Partly cloudy 10 - - - -
27/12:06pm 26.3 S 18 24 1009.4 - 0.0 - Partly cloudy 10 - - - -
27/12:00pm 26.3 S 18 23 1009.4 - 0.0 - Partly cloudy - - - - -
27/11:30am 26.1 S 18 23 1009.7 - 0.0 - Partly cloudy - - - - -
27/11:25am 26.0 S 18 23 1009.8 - 0.0 - Partly cloudy - - - - -
27/11:11am 25.3 S 20 24 1009.8 - 0.0 - Partly cloudy 6 - - - -
27/11:08am 25.8 S 19 24 1009.8 - 0.0 - Partly cloudy 10 - - - -
27/11:00am 26.3 S 19 23 1009.8 - 2.2 - Cloudy - - - - -
27/10:58am 26.3 S 19 23 1010.0 - 2.2 - Partly cloudy - - - - -
27/10:39am 25.8 S 19 23 1010.0 - 2.2 - Partly cloudy 10 - - - -
27/10:34am 25.6 S 18 22 1010.1 - 2.2 - Partly cloudy 10 - - - -
27/10:30am 25.4 S 18 23 1010.1 - 2.2 - Partly cloudy 10 - - - -
27/10:19am 25.4 S 18 23 1010.1 - 2.2 - Partly cloudy 10 - - - -
27/10:03am 25.2 S 19 23 1010.0 - 2.2 - Partly cloudy 8 - - - -
27/10:00am 25.0 S 18 23 1010.0 - 2.2 - Partly cloudy 7 - - - -
27/09:30am 25.3 S 16 20 1009.6 - 2.2 - Partly cloudy 10 - - - -
27/09:15am 25.0 S 17 21 1009.5 - 2.2 - Partly cloudy - - - - -
27/09:10am 24.9 S 18 23 1009.5 - 2.2 - Partly cloudy - - - - -
27/09:00am 24.5 S 20 25 1009.3 - 2.2 - Partly cloudy - - - - -
27/08:30am 24.7 S 18 22 1009.2 - 2.0 - Partly cloudy - - - - -
27/08:00am 24.8 S 17 22 1008.8 - 2.0 - Cloudy - - - - -
27/07:30am 25.0 S 16 19 1008.7 - 2.0 - Partly cloudy - - - - -
27/07:00am 25.1 S 16 20 1008.3 - 2.0 - Partly cloudy - - - - -
27/06:30am 25.1 S 17 21 1007.8 - 2.0 - Partly cloudy - - - - -
27/06:04am 24.9 S 16 20 1007.5 - 2.0 - Partly cloudy - - - - -
27/06:00am 24.8 S 16 21 1007.5 - 2.0 - Partly cloudy - - - - -
27/05:59am 24.8 S 16 21 1007.5 - 2.0 - Partly cloudy - - - - -
27/05:30am 24.9 S 16 21 1007.5 - 2.0 - Partly cloudy - - - - -
27/05:16am 24.3 S 19 23 1007.5 - 1.8 - Partly cloudy - - - - -
27/05:00am 24.9 S 16 21 1007.5 - 1.8 - Cloudy - - - - -
27/04:30am 24.3 S 18 21 1007.8 - 1.8 - Partly cloudy - - - - -
27/04:04am 24.6 SSE 13 17 1008.0 - 1.8 - Partly cloudy - - - - -
27/04:00am 24.7 SSE 13 19 1008.1 - 1.8 - Partly cloudy - - - - -
27/03:30am 24.2 SSE 13 18 1008.3 - 1.8 - Partly cloudy - - - - -
27/03:07am 24.3 SSE 14 19 1008.7 - 1.6 - Partly cloudy - - - - -
27/03:00am 24.5 SSE 14 19 1008.7 - 1.6 - Partly cloudy - - - - -
27/02:34am 24.6 S 16 21 1008.7 - 1.6 - Partly cloudy - - - - -
27/02:30am 24.6 S 17 21 1008.8 - 1.6 - Partly cloudy - - - - -
27/02:23am 24.5 S 16 21 1008.7 - 1.6 - Partly cloudy - - - - -
27/02:07am 24.4 SSE 15 19 1008.9 - 1.6 - Partly cloudy - - - - -
27/02:00am 24.3 S 17 22 1008.8 - 1.6 - Cloudy - - - - -
27/01:30am 24.3 SSE 15 21 1009.2 - 1.6 - Partly cloudy - - - - -
27/01:04am 24.3 S 17 21 1009.3 - 1.4 - Partly cloudy - - - - -
27/01:00am 24.4 S 17 21 1009.3 - 1.4 - Partly cloudy - - - - -
27/12:58am 24.4 S 17 22 1009.3 - 1.4 - Partly cloudy - - - - -
27/12:43am 24.3 SSE 18 22 1009.4 - 1.4 - Partly cloudy - - - - -
27/12:34am 24.9 SSE 18 23 1009.2 - 1.4 - Partly cloudy - - - - -
27/12:30am 24.8 SSE 16 23 1009.2 - 1.4 - Partly cloudy - - - - -
27/12:10am 24.6 S 17 22 1009.2 - 1.4 - Partly cloudy - - - - -
27/12:05am 24.5 S 17 22 1009.3 - 1.4 - Partly cloudy - - - - -
27/12:00am 24.4 S 16 22 1009.4 - 1.4 - Partly cloudy - - - - -
 
Date/Time
WST
Temp
°C
Wind Pressure Rain since
9am
mm
Weather Cloud Vis
km
Sea
Height
m
Swell
Dir  Spd
kts
Gust
kts
hPa Trend Height
m
Period
s
Dir
26/11:52pm 24.5 SSE 15 19 1009.4 - 1.4 - Partly cloudy - - - - -
26/11:48pm 24.5 SSE 14 19 1009.5 - 1.4 - Partly cloudy - - - - -
26/11:30pm 24.6 SSE 14 18 1009.6 - 1.0 - Partly cloudy - - - - -
26/11:00pm 24.4 SSE 14 20 1009.4 - 0.6 - Cloudy - - - - -
26/10:30pm 25.4 S 17 22 1009.6 - 0.2 - Cloudy - - - - -
26/10:00pm 25.3 S 17 21 1009.5 - 0.2 - Partly cloudy - - - - -
26/09:30pm 25.1 S 17 21 1009.3 - 0.2 - Partly cloudy - - - - -
26/09:23pm 25.1 S 18 22 1009.4 - 0.2 - Partly cloudy - - - - -
26/09:00pm 24.9 S 18 22 1009.3 - 0.2 - Partly cloudy - - - - -
26/08:30pm 25.3 S 19 22 1009.0 - 0.0 - Partly cloudy - - - - -
26/08:00pm 25.2 S 17 21 1008.7 - 0.0 - Cloudy - - - - -
26/07:30pm 25.4 S 16 20 1008.9 - 0.0 - Partly cloudy - - - - -
26/07:00pm 25.5 S 17 21 1008.6 - 0.0 - Partly cloudy - - - - -
26/06:30pm 25.3 SSE 16 21 1008.3 - 0.0 - Partly cloudy - - - - -
26/06:00pm 25.9 S 14 17 1007.9 - 0.0 - Partly cloudy - - - - -
26/05:30pm 25.8 S 16 18 1007.5 - 0.0 - Partly cloudy - - - - -
26/05:00pm 25.8 S 17 19 1007.2 - 0.0 - Cloudy - - - - -
26/04:30pm 27.3 SSE 15 19 1007.0 - 0.0 - Mostly clear 10 - - - -
26/04:00pm 26.3 SSE 13 17 1007.1 - 0.0 - Mostly clear 10 - - - -
26/03:30pm 26.8 SSE 13 17 1007.4 - 0.0 - Mostly clear 10 - - - -
26/03:00pm 26.5 SE 11 16 1007.9 - 0.0 - Mostly clear 10 - - - -
26/02:30pm 26.0 SE 10 14 1008.1 - 0.0 - Mostly clear 10 - - - -
26/02:00pm 26.0 SSE 12 19 1008.3 - 0.0 - Cloudy 10 - - - -
26/01:30pm 27.3 S 14 17 1008.6 - 0.0 - Mostly clear 10 - - - -
26/01:00pm 27.2 S 11 14 1008.8 - 0.0 - Partly cloudy - - - - -
26/12:30pm 26.2 S 16 21 1009.5 - 0.0 Drizzle Mostly clear 10 - - - -
26/12:00pm 25.7 SE 14 17 1009.7 - 0.0 - Mostly clear 10 - - - -
26/11:30am 26.0 ESE 12 18 1009.9 - 0.0 - Mostly clear 10 - - - -
26/11:00am 26.9 ESE 12 16 1009.9 - 0.0 - Cloudy 10 - - - -
26/10:30am 26.7 ESE 11 15 1009.9 - 0.0 - Partly cloudy 10 - - - -
26/10:00am 26.2 SE 13 16 1009.7 - 0.0 - Mostly clear 10 - - - -
26/09:30am 26.4 SE 11 15 1009.4 - 0.0 - Mostly clear 10 - - - -
26/09:00am 26.3 SSE 11 14 1009.0 - 0.0 - Partly cloudy 10 - - - -
26/08:30am 26.0 SSE 11 15 1008.6 - 0.0 - Cloudy 10 - - - -
26/08:00am 25.9 SSE 9 14 1008.1 - 0.0 - Mostly cloudy - - - - -
26/07:30am 25.6 SSE 10 14 1008.0 - 0.0 - Cloudy - - - - -
26/07:00am 25.5 SSE 11 15 1007.8 - 0.0 - Partly cloudy - - - - -
26/06:30am 25.5 SE 11 15 1007.5 - 0.0 - Cloudy - - - - -
26/06:00am 25.6 SSE 10 14 1007.7 - 0.0 - Cloudy - - - - -
26/05:30am 25.6 SSE 9 12 1007.7 - 0.0 - Partly cloudy - - - - -
26/05:00am 25.6 SE 10 12 1007.9 - 0.0 - Partly cloudy - - - - -
26/04:30am 25.5 SE 11 15 1007.9 - 0.0 - Partly cloudy - - - - -
26/04:00am 25.7 SE 11 15 1007.8 - 0.0 - Partly cloudy - - - - -
26/03:30am 25.8 SE 13 17 1008.2 - 0.0 - Partly cloudy - - - - -
26/03:07am 25.7 SE 12 16 1008.4 - 0.0 - Partly cloudy - - - - -
26/03:00am 25.7 SE 13 17 1008.3 - 0.0 - Partly cloudy - - - - -
26/02:40am 25.7 SE 11 15 1008.7 - 0.0 - Partly cloudy - - - - -
26/02:39am 25.7 SE 11 15 1008.7 - 0.0 - Partly cloudy - - - - -
26/02:30am 25.7 SE 12 15 1008.8 - 0.0 - Partly cloudy - - - - -
26/02:23am 25.7 SE 11 15 1008.9 - 0.0 - Partly cloudy - - - - -
26/02:00am 25.8 SE 13 16 1009.0 - 0.0 - Mostly cloudy - - - - -
26/01:30am 25.9 SE 14 17 1009.4 - 0.0 - Partly cloudy - - - - -
26/01:11am 25.9 SE 13 17 1009.6 - 0.0 - Partly cloudy - - - - -
26/01:00am 25.9 SE 16 20 1009.6 - 0.0 - Partly cloudy - - - - -
26/12:30am 25.9 SE 15 19 1009.7 - 0.0 - Partly cloudy - - - - -
26/12:28am 26.0 SE 15 19 1009.7 - 0.0 - Partly cloudy - - - - -
26/12:00am 25.9 SE 13 17 1009.9 - 0.0 - Partly cloudy - - - - -
 
Date/Time
WST
Temp
°C
Wind Pressure Rain since
9am
mm
Weather Cloud Vis
km
Sea
Height
m
Swell
Dir  Spd
kts
Gust
kts
hPa Trend Height
m
Period
s
Dir
25/11:56pm 25.9 SE 14 19 1009.9 - 0.0 - Partly cloudy - - - - -
25/11:30pm 25.8 SE 13 16 1009.8 - 0.0 - Partly cloudy - - - - -
25/11:15pm 25.8 SE 12 16 1010.1 - 0.0 - Partly cloudy - - - - -
25/11:00pm 25.8 SE 13 16 1010.1 - 0.0 - Partly cloudy - - - - -
25/10:30pm 25.9 SE 13 16 1010.1 - 0.0 - Partly cloudy - - - - -
25/10:29pm 25.9 SE 13 16 1010.1 - 0.0 - Partly cloudy - - - - -
25/10:00pm 25.9 SE 13 17 1010.1 - 0.0 - Partly cloudy - - - - -
25/09:35pm 25.9 SE 13 16 1009.9 - 0.0 - Partly cloudy - - - - -
25/09:30pm 26.0 SE 12 16 1009.9 - 0.0 - Partly cloudy - - - - -
25/09:05pm 26.0 SE 12 15 1009.7 - 0.0 - Partly cloudy - - - - -
25/09:00pm 26.0 SE 12 15 1009.7 - 0.0 - Partly cloudy - - - - -
25/08:30pm 26.1 ESE 11 13 1009.4 - 0.0 - Partly cloudy - - - - -
25/08:00pm 26.0 ESE 10 14 1008.9 - 0.0 - Mostly clear - - - - -
25/07:30pm 26.1 SE 10 13 1008.7 - 0.0 - Partly cloudy - - - - -
25/07:00pm 26.2 SE 12 14 1008.3 - 0.0 - Partly cloudy - - - - -
25/06:30pm 26.6 SE 11 13 1007.9 - 0.0 - Partly cloudy - - - - -
25/06:00pm 26.6 SE 12 15 1007.9 - 0.0 - Partly cloudy - - - - -
25/05:30pm 26.7 SE 13 15 1007.8 - 0.0 - Partly cloudy - - - - -
25/05:00pm 26.7 SE 11 16 1007.7 - 0.0 - Cloudy - - - - -
25/04:30pm 26.8 ESE 12 16 1007.5 - 0.0 - Mostly clear 10 - - - -
25/04:00pm 27.0 ESE 12 16 1007.6 - 0.0 - Mostly clear 10 - - - -
25/03:30pm 27.1 SE 12 16 1007.7 - 0.0 - Partly cloudy 10 - - - -
25/03:00pm 27.1 ESE 12 16 1008.0 - 0.0 - Partly cloudy 10 - - - -
25/02:30pm 27.4 ESE 11 15 1008.3 - 0.0 - Mostly clear 10 - - - -
25/02:00pm 27.1 SE 12 16 1008.7 - 0.0 - Cloudy 10 - - - -
25/01:30pm 27.5 SE 12 15 1009.0 - 0.0 - Partly cloudy 10 - - - -
25/01:00pm 26.9 ESE 13 17 1009.0 - 0.0 - Partly cloudy 10 - - - -
25/12:30pm 26.9 ESE 12 17 1009.5 - 0.0 - Mostly clear 10 - - - -
25/12:00pm 27.1 ESE 11 14 1009.8 - 0.0 - Mostly clear 10 - - - -
25/11:30am 26.7 ESE 12 15 1010.1 - 0.0 - Mostly clear 10 - - - -
25/11:00am 26.7 ESE 10 15 1010.4 - 0.0 - Mostly clear 10 - - - -
25/10:30am 26.8 ESE 9 11 1010.8 - 0.0 - Mostly clear 10 - - - -
25/10:00am 26.3 SE 8 10 1010.7 - 0.0 - Mostly clear 10 - - - -
25/09:30am 25.7 ESE 8 9 1010.7 - 0.0 - Mostly clear 10 - - - -
25/09:00am 25.3 ESE 9 11 1010.6 - 0.0 - Mostly clear 10 - - - -
25/08:30am 24.8 ESE 7 9 1010.4 - 0.0 - Mostly clear 10 - - - -
25/08:00am 24.6 SE 7 9 1010.1 - 0.0 - - - - - - -
25/07:30am 24.7 SE 6 7 1010.0 - 0.0 - - - - - - -
25/07:00am 24.6 SE 6 8 1009.6 - 0.0 - Partly cloudy - - - - -
25/06:30am 23.3 SE 2 4 1009.2 - 0.0 - Partly cloudy - - - - -
25/06:00am 22.4 CALM 0 0 1008.9 - 0.0 - - - - - - -
25/05:30am 23.1 CALM 0 0 1008.8 - 0.0 - - - - - - -
25/05:00am 24.7 ESE 3 5 1008.7 - 0.0 - - - - - - -
25/04:30am 24.9 ESE 4 6 1008.9 - 0.0 - - - - - - -
25/04:00am 24.7 ESE 5 6 1008.9 - 0.0 - Partly cloudy - - - - -
25/03:30am 25.1 ESE 3 5 1009.2 - 0.0 - Partly cloudy - - - - -
25/03:00am 24.6 ESE 4 5 1009.5 - 0.0 - Partly cloudy 10 - - - -

Other Formats:

Comma delimited format used in spreadsheet applications
http://www.bom.gov.au/fwo/IDW60701/IDW60701.96996.axf

JavaScript Object Notation format (JSON) in row-major order
http://www.bom.gov.au/fwo/IDW60701/IDW60701.96996.json